createdAt,value
2023-04-04T00:00:34.842Z,102838.19
2023-04-04T00:03:04.213Z,102714.91
2023-04-04T00:05:33.526Z,102831.63
2023-04-04T00:08:02.140Z,102826.31
2023-04-04T00:10:30.011Z,102831.28
2023-04-04T00:12:58.223Z,102775.03
2023-04-04T00:15:26.479Z,102819.03
2023-04-04T00:17:54.327Z,102819.94
2023-04-04T00:20:24.233Z,102812.97
2023-04-04T00:22:52.153Z,102779.13
2023-04-04T00:25:20.160Z,102807.34
2023-04-04T00:27:48.968Z,102733.19
2023-04-04T00:30:17.141Z,102782.28
2023-04-04T00:32:45.106Z,102801.03
2023-04-04T00:35:13.727Z,102799.38
2023-04-04T00:37:43.083Z,102737.06
2023-04-04T00:40:11.299Z,102793.81
2023-04-04T00:42:39.459Z,102792.06
2023-04-04T00:45:09.072Z,102706.75
2023-04-04T00:47:38.980Z,102786.41
2023-04-04T00:50:08.810Z,102785.09
2023-04-04T00:52:37.554Z,102726.88
2023-04-04T00:55:07.919Z,102785.78
2023-04-04T00:57:36.153Z,102779.72
2023-04-04T01:00:06.686Z,102780.88
2023-04-04T01:02:34.606Z,102775.06
2023-04-04T01:05:04.648Z,102648.53
2023-04-04T01:07:32.937Z,102772.22
2023-04-04T01:10:02.613Z,102765.84
2023-04-04T01:12:32.882Z,102764.75
2023-04-04T01:15:00.886Z,102722.28
2023-04-04T01:17:29.538Z,102641.31
2023-04-04T01:20:03.960Z,102766.66
2023-04-04T01:22:32.907Z,102756.78
2023-04-04T01:25:02.936Z,102766.31
2023-04-04T01:27:32.277Z,102765.66
2023-04-04T01:30:00.484Z,102764.41
2023-04-04T01:32:35.240Z,102759.84
2023-04-04T01:35:14.768Z,102700.50
2023-04-04T01:37:49.684Z,102732.16
2023-04-04T01:40:21.938Z,102763.34
2023-04-04T01:42:53.250Z,102742.34
2023-04-04T01:45:24.407Z,102760.38
2023-04-04T01:47:52.464Z,102767.50
2023-04-04T01:50:20.692Z,102768.25
2023-04-04T01:52:50.025Z,102762.59
2023-04-04T01:55:18.149Z,102686.81
2023-04-04T01:57:47.393Z,102766.97
2023-04-04T02:00:17.383Z,102751.78
2023-04-04T02:02:45.623Z,102754.00
2023-04-04T02:05:13.930Z,102696.81
2023-04-04T02:07:41.885Z,102610.94
2023-04-04T02:10:10.182Z,102742.25
2023-04-04T02:12:38.812Z,102739.53
2023-04-04T02:15:07.917Z,102744.66
2023-04-04T02:17:37.421Z,102739.34
2023-04-04T02:20:05.932Z,102740.25
2023-04-04T02:22:33.856Z,102740.88
2023-04-04T02:25:02.926Z,102632.72
2023-04-04T02:27:31.092Z,102742.94
2023-04-04T02:29:59.095Z,102740.03
2023-04-04T02:32:27.484Z,102732.16
2023-04-04T02:34:57.180Z,102674.00
2023-04-04T02:37:25.101Z,102735.53
2023-04-04T02:39:53.077Z,102735.34
2023-04-04T02:42:20.968Z,102739.22
2023-04-04T02:44:48.834Z,102733.94
2023-04-04T02:47:16.954Z,102731.94
2023-04-04T02:49:45.048Z,102685.06
2023-04-04T02:52:14.226Z,102725.38
2023-04-04T02:54:43.113Z,102730.16
2023-04-04T02:57:11.537Z,102731.06
2023-04-04T02:59:39.355Z,102729.06
2023-04-04T03:02:07.401Z,102659.78
2023-04-04T03:04:36.983Z,102730.22
2023-04-04T03:07:05.112Z,102726.41
2023-04-04T03:09:34.819Z,102735.75
2023-04-04T03:12:03.283Z,102728.44
2023-04-04T03:14:31.114Z,102732.84
2023-04-04T03:16:59.618Z,102726.22
2023-04-04T03:19:27.605Z,102724.41
2023-04-04T03:21:58.178Z,102721.66
2023-04-04T03:24:26.609Z,102714.53
2023-04-04T03:26:55.962Z,102713.63
2023-04-04T03:29:24.087Z,102667.25
2023-04-04T03:31:53.940Z,102661.84
2023-04-04T03:34:23.600Z,102661.66
2023-04-04T03:36:51.974Z,102668.22
2023-04-04T03:39:19.990Z,102709.13
2023-04-04T03:41:48.370Z,102708.75
2023-04-04T03:44:18.095Z,102711.31
2023-04-04T03:46:46.060Z,102709.34
2023-04-04T03:49:14.111Z,102705.69
2023-04-04T03:51:41.984Z,102599.69
2023-04-04T03:54:09.940Z,102699.47
2023-04-04T03:56:38.179Z,102692.69
2023-04-04T03:59:06.554Z,102699.63
2023-04-04T04:01:36.049Z,102534.19
2023-04-04T04:04:04.105Z,102690.28
2023-04-04T04:06:32.048Z,102636.97
2023-04-04T04:08:59.961Z,102688.97
2023-04-04T04:11:28.121Z,102659.22
2023-04-04T04:13:56.102Z,102681.22
2023-04-04T04:16:24.201Z,102684.31
2023-04-04T04:18:53.675Z,102681.19
2023-04-04T04:21:21.609Z,102614.19
2023-04-04T04:23:49.550Z,102677.47
2023-04-04T04:26:17.497Z,102687.69
2023-04-04T04:28:48.191Z,102673.88
2023-04-04T04:31:17.566Z,102598.34
2023-04-04T04:33:47.780Z,102502.75
2023-04-04T04:36:17.583Z,102679.72
2023-04-04T04:38:45.579Z,102554.66
2023-04-04T04:41:13.633Z,102670.19
2023-04-04T04:43:42.240Z,102669.34
2023-04-04T04:46:10.161Z,102648.31
2023-04-04T04:48:38.453Z,102661.81
2023-04-04T04:51:06.721Z,102659.16
2023-04-04T04:53:36.504Z,102664.38
2023-04-04T04:56:05.522Z,102663.38
2023-04-04T04:58:33.948Z,102659.81
2023-04-04T05:01:02.143Z,102663.78
2023-04-04T05:03:30.555Z,102665.19
2023-04-04T05:05:58.544Z,102559.00
2023-04-04T05:08:26.515Z,102663.19
2023-04-04T05:10:56.386Z,102664.16
2023-04-04T05:13:25.216Z,102659.66
2023-04-04T05:15:53.079Z,102667.28
2023-04-04T05:18:21.048Z,102640.59
2023-04-04T05:20:53.173Z,102543.94
2023-04-04T05:23:21.605Z,102556.25
2023-04-04T05:25:50.742Z,102661.31
2023-04-04T05:28:20.188Z,102649.69
2023-04-04T05:30:48.103Z,102653.50
2023-04-04T05:33:16.122Z,102626.66
2023-04-04T05:35:44.150Z,102653.69
2023-04-04T05:38:12.649Z,102654.75
2023-04-04T05:40:40.838Z,102581.63
2023-04-04T05:43:09.476Z,102659.97
2023-04-04T05:45:40.571Z,102651.63
2023-04-04T05:48:09.952Z,102652.28
2023-04-04T05:50:38.174Z,102652.75
2023-04-04T05:53:06.651Z,102621.66
2023-04-04T05:55:34.709Z,102485.75
2023-04-04T05:58:02.635Z,102647.66
2023-04-04T06:00:31.189Z,102645.25
2023-04-04T06:03:03.410Z,102652.88
2023-04-04T06:05:31.491Z,102639.25
2023-04-04T06:08:00.512Z,102643.34
2023-04-04T06:10:28.593Z,102597.53
2023-04-04T06:12:56.471Z,102625.16
2023-04-04T06:15:24.801Z,102618.94
2023-04-04T06:17:52.661Z,102588.31
2023-04-04T06:20:24.168Z,102642.63
2023-04-04T06:22:52.853Z,102571.97
2023-04-04T06:25:21.066Z,102602.28
2023-04-04T06:27:49.079Z,102638.03
2023-04-04T06:30:18.448Z,102497.69
2023-04-04T06:32:46.352Z,102653.19
2023-04-04T06:35:14.294Z,102626.03
2023-04-04T06:37:43.668Z,102647.56
2023-04-04T06:40:12.288Z,102621.63
2023-04-04T06:42:40.114Z,102651.03
2023-04-04T06:45:09.307Z,102648.16
2023-04-04T06:47:37.447Z,102650.41
2023-04-04T06:50:06.161Z,102645.69
2023-04-04T06:52:34.695Z,102558.81
2023-04-04T06:55:04.350Z,102638.06
2023-04-04T06:57:32.216Z,102633.66
2023-04-04T07:00:00.365Z,102640.81
2023-04-04T07:02:28.247Z,102639.88
2023-04-04T07:04:56.172Z,102602.41
2023-04-04T07:07:24.781Z,102600.09
2023-04-04T07:09:52.615Z,102642.22
2023-04-04T07:12:21.856Z,102636.59
2023-04-04T07:14:49.857Z,102644.78
2023-04-04T07:17:24.853Z,102645.06
2023-04-04T07:19:53.566Z,102635.94
2023-04-04T07:22:21.554Z,102644.41
2023-04-04T07:24:49.503Z,102614.94
2023-04-04T07:27:17.587Z,102644.44
2023-04-04T07:29:46.809Z,102616.34
2023-04-04T07:32:14.693Z,102641.47
2023-04-04T07:34:43.082Z,102637.34
2023-04-04T07:37:10.968Z,102552.69
2023-04-04T07:39:38.804Z,102616.44
2023-04-04T07:42:07.455Z,102539.00
2023-04-04T07:44:35.315Z,102484.78
2023-04-04T07:47:09.930Z,102631.78
2023-04-04T07:49:38.709Z,102637.38
2023-04-04T07:52:07.312Z,102587.81
2023-04-04T07:54:35.163Z,102636.97
2023-04-04T07:57:05.594Z,102452.00
2023-04-04T07:59:33.567Z,102606.41
2023-04-04T08:02:01.773Z,102569.28
2023-04-04T08:04:31.184Z,102640.44
2023-04-04T08:06:59.052Z,102639.44
2023-04-04T08:09:31.425Z,102646.34
2023-04-04T08:11:59.646Z,102614.72
2023-04-04T08:14:27.631Z,102620.84
2023-04-04T08:16:55.491Z,102640.56
2023-04-04T08:19:23.558Z,102613.19
2023-04-04T08:21:52.787Z,102644.34
2023-04-04T08:24:22.480Z,102546.56
2023-04-04T08:27:01.831Z,102649.44
2023-04-04T08:29:33.149Z,102653.72
2023-04-04T08:32:01.827Z,102655.53
2023-04-04T08:34:29.715Z,102650.88
2023-04-04T08:37:00.154Z,102646.72
2023-04-04T08:39:28.461Z,102648.50
2023-04-04T08:42:03.144Z,102618.66
2023-04-04T08:44:33.128Z,102647.44
2023-04-04T08:47:02.720Z,102502.28
2023-04-04T08:49:33.438Z,102636.53
2023-04-04T08:52:04.758Z,102639.84
2023-04-04T08:54:33.636Z,102640.06
2023-04-04T08:57:01.874Z,102641.59
2023-04-04T08:59:30.098Z,102617.91
2023-04-04T09:02:05.744Z,102632.72
2023-04-04T09:04:34.477Z,102606.13
2023-04-04T09:07:05.294Z,102626.69
2023-04-04T09:09:33.614Z,102630.19
2023-04-04T09:12:03.525Z,102624.50
2023-04-04T09:14:33.222Z,102602.31
2023-04-04T09:17:01.155Z,102627.88
2023-04-04T09:19:29.266Z,102619.41
2023-04-04T09:21:57.194Z,102623.91
2023-04-04T09:24:37.690Z,102627.19
2023-04-04T09:27:06.084Z,102544.72
2023-04-04T09:29:34.856Z,102618.34
2023-04-04T09:32:02.930Z,102621.88
2023-04-04T09:34:31.767Z,102618.34
2023-04-04T09:37:00.325Z,102619.03
2023-04-04T09:39:30.030Z,102616.31
2023-04-04T09:41:59.380Z,102567.59
2023-04-04T09:44:29.319Z,102611.56
2023-04-04T09:47:30.530Z,102565.59
2023-04-04T09:49:59.820Z,102585.66
2023-04-04T09:52:28.314Z,102615.56
2023-04-04T09:54:59.206Z,102635.41
2023-04-04T09:57:30.810Z,102598.81
2023-04-04T10:00:03.167Z,102561.91
2023-04-04T10:02:32.869Z,102618.59
2023-04-04T10:07:33.926Z,102612.59
2023-04-04T10:10:06.731Z,102590.50
2023-04-04T10:12:34.870Z,102610.63
2023-04-04T10:15:03.541Z,102605.63
2023-04-04T10:17:32.330Z,102597.22
2023-04-04T10:20:03.282Z,102595.50
2023-04-04T10:22:32.929Z,102603.31
2023-04-04T10:25:01.101Z,102561.31
2023-04-04T10:27:30.762Z,102522.47
2023-04-04T10:29:58.764Z,102536.50
2023-04-04T10:32:35.070Z,102552.19
2023-04-04T10:35:05.810Z,102599.97
2023-04-04T10:37:38.672Z,102588.59
2023-04-04T10:40:11.267Z,102590.25
2023-04-04T10:42:46.923Z,102591.28
2023-04-04T10:45:21.207Z,102580.47
2023-04-04T10:47:50.558Z,102580.41
2023-04-04T10:50:18.544Z,102576.13
2023-04-04T10:52:47.328Z,102579.03
2023-04-04T10:55:17.400Z,102512.41
2023-04-04T10:57:51.882Z,102571.69
2023-04-04T11:00:23.663Z,102569.47
2023-04-04T11:02:57.642Z,102566.84
2023-04-04T11:05:27.367Z,102514.84
2023-04-04T11:10:33.580Z,102462.19
2023-04-04T11:13:12.644Z,102511.81
2023-04-04T11:15:54.789Z,102563.47
2023-04-04T11:18:33.382Z,102557.22
2023-04-04T11:21:05.375Z,102505.59
2023-04-04T11:24:15.877Z,102553.41
2023-04-04T11:26:45.667Z,102535.81
2023-04-04T11:29:24.048Z,102544.97
2023-04-04T11:31:52.599Z,102539.66
2023-04-04T11:34:38.452Z,102547.25
2023-04-04T11:37:19.194Z,102540.94
2023-04-04T11:39:56.768Z,102546.88
2023-04-04T11:42:25.308Z,102391.44
2023-04-04T11:45:27.219Z,102537.19
2023-04-04T11:47:56.167Z,102535.09
2023-04-04T11:50:24.026Z,102522.22
2023-04-04T11:52:53.967Z,102528.63
2023-04-04T11:55:23.157Z,102529.44
2023-04-04T11:57:51.494Z,102533.56
2023-04-04T12:00:32.129Z,102529.75
2023-04-04T12:03:00.421Z,102524.22
2023-04-04T12:05:29.075Z,102530.44
2023-04-04T12:07:57.549Z,102519.94
2023-04-04T12:10:25.542Z,102518.25
2023-04-04T12:12:56.890Z,102511.34
2023-04-04T12:15:24.934Z,102429.09
2023-04-04T12:17:54.280Z,102508.41
2023-04-04T12:20:24.707Z,102505.78
2023-04-04T12:22:53.509Z,102453.97
2023-04-04T12:25:23.109Z,102483.75
2023-04-04T12:27:52.833Z,102504.09
2023-04-04T12:30:21.363Z,102493.06
2023-04-04T12:32:50.856Z,102508.78
2023-04-04T12:35:20.299Z,102497.03
2023-04-04T12:38:07.449Z,102498.34
2023-04-04T12:40:38.234Z,102468.66
2023-04-04T12:43:08.078Z,102488.69
2023-04-04T12:45:40.445Z,102491.25
2023-04-04T12:48:14.114Z,102475.31
2023-04-04T12:50:54.479Z,102456.00
2023-04-04T12:55:55.658Z,102492.81
2023-04-04T12:58:25.868Z,102492.69
2023-04-04T13:00:55.208Z,102491.97
2023-04-04T13:03:26.234Z,102491.41
2023-04-04T13:05:55.794Z,102487.69
2023-04-04T13:08:23.889Z,102486.28
2023-04-04T13:11:06.417Z,102484.97
2023-04-04T13:13:38.793Z,102354.00
2023-04-04T13:16:08.438Z,102487.53
2023-04-04T13:18:38.660Z,102452.97
2023-04-04T13:21:11.126Z,102486.00
2023-04-04T13:23:40.978Z,102486.63
2023-04-04T13:26:10.416Z,102483.00
2023-04-04T13:28:38.638Z,102483.31
2023-04-04T13:31:08.314Z,102471.66
2023-04-04T13:33:36.745Z,102478.59
2023-04-04T13:36:05.388Z,102425.47
2023-04-04T13:38:34.854Z,102470.88
2023-04-04T13:41:02.831Z,102466.03
2023-04-04T13:43:30.857Z,102465.19
2023-04-04T13:45:58.900Z,102461.69
2023-04-04T13:48:27.214Z,102425.88
2023-04-04T13:50:55.820Z,102464.72
2023-04-04T13:53:23.831Z,102467.75
2023-04-04T13:58:25.710Z,102470.34
2023-04-04T14:00:53.705Z,102458.00
2023-04-04T14:03:22.312Z,102453.50
2023-04-04T14:05:50.588Z,102459.91
2023-04-04T14:08:18.800Z,102423.66
2023-04-04T14:10:46.767Z,102467.66
2023-04-04T14:13:16.276Z,102466.63
2023-04-04T14:15:44.662Z,102467.34
2023-04-04T14:18:12.657Z,102452.47
2023-04-04T14:20:40.861Z,102431.50
2023-04-04T14:23:09.599Z,102460.81
2023-04-04T14:25:37.549Z,102452.78
2023-04-04T14:28:05.494Z,102462.22
2023-04-04T14:30:34.799Z,102462.31
2023-04-04T14:33:02.689Z,102459.50
2023-04-04T14:35:31.002Z,102410.91
2023-04-04T14:37:59.007Z,102447.06
2023-04-04T14:40:27.384Z,102447.56
2023-04-04T14:42:55.276Z,102424.66
2023-04-04T14:45:23.786Z,102441.72
2023-04-04T14:47:52.999Z,102442.53
2023-04-04T14:50:21.033Z,102430.69
2023-04-04T14:52:51.198Z,102442.53
2023-04-04T14:55:20.780Z,102369.84
2023-04-04T14:58:01.306Z,102435.31
2023-04-04T15:00:30.516Z,102433.41
2023-04-04T15:02:59.877Z,102437.63
2023-04-04T15:05:27.837Z,102429.84
2023-04-04T15:07:56.437Z,102434.41
2023-04-04T15:10:24.463Z,102429.75
2023-04-04T15:12:52.335Z,102432.16
2023-04-04T15:15:22.257Z,102430.75
2023-04-04T15:17:52.097Z,102426.75
2023-04-04T15:20:21.641Z,102436.50
2023-04-04T15:22:49.565Z,102436.50
2023-04-04T15:25:17.533Z,102430.38
2023-04-04T15:27:45.528Z,102393.50
2023-04-04T15:30:14.880Z,102430.66
2023-04-04T15:32:43.000Z,102427.88
2023-04-04T15:35:18.114Z,102429.63
2023-04-04T15:37:49.147Z,102380.00
2023-04-04T15:40:17.684Z,102427.38
2023-04-04T15:42:46.351Z,102421.91
2023-04-04T15:45:15.347Z,102394.84
2023-04-04T15:47:45.191Z,102425.13
2023-04-04T15:50:13.408Z,102339.06
2023-04-04T15:52:41.983Z,102418.34
2023-04-04T15:55:14.588Z,102420.66
2023-04-04T15:57:44.863Z,102420.63
2023-04-04T16:00:14.599Z,102416.47
2023-04-04T16:02:42.692Z,102416.13
2023-04-04T16:05:11.316Z,102411.31
2023-04-04T16:07:39.412Z,102412.81
2023-04-04T16:10:08.972Z,102409.28
2023-04-04T16:12:38.284Z,102412.16
2023-04-04T16:15:07.804Z,102410.38
2023-04-04T16:17:35.733Z,102412.06
2023-04-04T16:20:03.993Z,102406.41
2023-04-04T16:22:33.410Z,102399.53
2023-04-04T16:25:01.311Z,102422.41
2023-04-04T16:27:29.279Z,102363.22
2023-04-04T16:29:58.689Z,102409.16
2023-04-04T16:32:26.682Z,102406.22
2023-04-04T16:34:54.644Z,102403.72
2023-04-04T16:37:24.390Z,102406.50
2023-04-04T16:39:52.210Z,102399.63
2023-04-04T16:42:20.442Z,102402.25
2023-04-04T16:44:48.384Z,102400.88
2023-04-04T16:47:17.580Z,102387.97
2023-04-04T16:49:47.241Z,102388.94
2023-04-04T16:52:15.998Z,102378.91
2023-04-04T16:54:43.914Z,102385.16
2023-04-04T16:57:11.892Z,102387.00
2023-04-04T16:59:39.926Z,102392.69
2023-04-04T17:02:09.066Z,102375.63
2023-04-04T17:04:41.184Z,102403.66
2023-04-04T17:07:09.539Z,102409.16
2023-04-04T17:09:38.503Z,102356.41
2023-04-04T17:12:06.781Z,102401.38
2023-04-04T17:14:35.724Z,102253.56
2023-04-04T17:17:05.410Z,102403.50
2023-04-04T17:19:35.355Z,102408.66
2023-04-04T17:22:04.809Z,102349.47
2023-04-04T17:24:33.180Z,102112.59
2023-04-04T17:27:02.690Z,102298.81
2023-04-04T17:29:30.820Z,102394.97
2023-04-04T17:32:01.383Z,102410.53
2023-04-04T17:34:29.357Z,102304.06
2023-04-04T17:36:57.704Z,102405.66
2023-04-04T17:39:27.092Z,102407.63
2023-04-04T17:41:55.145Z,102394.06
2023-04-04T17:44:23.392Z,102403.78
2023-04-04T17:46:51.255Z,102315.53
2023-04-04T17:49:20.344Z,102410.31
2023-04-04T17:51:49.483Z,102409.78
2023-04-04T17:54:17.918Z,102376.66
2023-04-04T17:56:47.787Z,102406.97
2023-04-04T17:59:17.591Z,102238.63
2023-04-04T18:01:46.048Z,102405.03
2023-04-04T18:04:14.037Z,102355.72
2023-04-04T18:06:42.254Z,102407.75
2023-04-04T18:09:10.648Z,102404.78
2023-04-04T18:11:40.301Z,102398.06
2023-04-04T18:14:09.689Z,102401.94
2023-04-04T18:16:40.369Z,102399.75
2023-04-04T18:19:09.591Z,102348.19
2023-04-04T18:21:38.367Z,102400.38
2023-04-04T18:24:11.368Z,102404.38
2023-04-04T18:26:39.462Z,102406.44
2023-04-04T18:29:07.608Z,102412.91
2023-04-04T18:31:36.987Z,102404.75
2023-04-04T18:34:04.833Z,102426.88
2023-04-04T18:36:32.720Z,102414.44
2023-04-04T18:39:01.383Z,102387.38
2023-04-04T18:41:29.398Z,102408.47
2023-04-04T18:43:57.235Z,102406.25
2023-04-04T18:46:25.383Z,102402.34
2023-04-04T18:48:54.724Z,102351.94
2023-04-04T18:51:23.796Z,102330.91
2023-04-04T18:53:52.180Z,102414.19
2023-04-04T18:56:20.139Z,102406.69
2023-04-04T18:58:49.899Z,102414.28
2023-04-04T19:01:17.951Z,102411.16
2023-04-04T19:03:47.577Z,102408.41
2023-04-04T19:06:17.035Z,102418.88
2023-04-04T19:08:45.861Z,102411.63
2023-04-04T19:11:14.426Z,102407.72
2023-04-04T19:13:42.353Z,102415.69
2023-04-04T19:16:10.390Z,102412.28
2023-04-04T19:18:38.460Z,102412.50
2023-04-04T19:21:07.574Z,102413.13
2023-04-04T19:23:37.653Z,102410.41
2023-04-04T19:26:06.622Z,102413.34
2023-04-04T19:28:34.569Z,102326.59
2023-04-04T19:31:04.653Z,102410.06
2023-04-04T19:33:34.257Z,102407.19
2023-04-04T19:36:09.598Z,102405.09
2023-04-04T19:38:42.638Z,102352.81
2023-04-04T19:41:13.898Z,102421.22
2023-04-04T19:43:43.193Z,102409.69
2023-04-04T19:46:12.175Z,102351.47
2023-04-04T19:48:46.202Z,102388.25
2023-04-04T19:51:37.428Z,102409.00
2023-04-04T19:54:08.356Z,102412.97
2023-04-04T19:56:37.870Z,102418.91
2023-04-04T19:59:10.514Z,102416.81
2023-04-04T20:01:47.263Z,102339.53
2023-04-04T20:04:22.352Z,102412.88
2023-04-04T20:06:50.446Z,102347.44
2023-04-04T20:09:34.890Z,102369.72
2023-04-04T20:12:03.100Z,102424.66
2023-04-04T20:14:31.100Z,102425.41
2023-04-04T20:16:59.045Z,102429.09
2023-04-04T20:19:28.800Z,102433.06
2023-04-04T20:21:57.064Z,102357.19
2023-04-04T20:24:25.333Z,102356.75
2023-04-04T20:26:57.315Z,102440.56
2023-04-04T20:29:27.182Z,102345.75
2023-04-04T20:31:59.175Z,102407.28
2023-04-04T20:34:45.960Z,102440.78
2023-04-04T20:37:16.375Z,102371.50
2023-04-04T20:39:49.385Z,102415.28
2023-04-04T20:42:35.071Z,102376.38
2023-04-04T20:45:14.743Z,102420.13
2023-04-04T20:47:44.932Z,102321.00
2023-04-04T20:50:54.168Z,102444.53
2023-04-04T20:53:22.103Z,102442.41
2023-04-04T20:55:51.533Z,102448.94
2023-04-04T20:58:30.144Z,102443.63
2023-04-04T21:00:59.846Z,102367.03
2023-04-04T21:03:36.292Z,102443.34
2023-04-04T21:06:11.577Z,102443.06
2023-04-04T21:08:49.688Z,102370.09
2023-04-04T21:11:24.430Z,102447.75
2023-04-04T21:13:53.936Z,102443.97
2023-04-04T21:16:25.109Z,102445.34
2023-04-04T21:18:58.240Z,102366.63
2023-04-04T21:21:26.681Z,102447.63
2023-04-04T21:23:56.104Z,102374.81
2023-04-04T21:26:33.263Z,102429.47
2023-04-04T21:29:04.256Z,102454.63
2023-04-04T21:31:37.822Z,102444.03
2023-04-04T21:34:11.129Z,102441.91
2023-04-04T21:36:39.608Z,102454.63
2023-04-04T21:39:10.926Z,102451.91
2023-04-04T21:41:38.892Z,102461.91
2023-04-04T21:44:09.882Z,102386.81
2023-04-04T21:46:39.429Z,102455.25
2023-04-04T21:49:08.866Z,102404.66
2023-04-04T21:51:40.513Z,102451.94
2023-04-04T21:54:09.056Z,102454.97
2023-04-04T21:56:38.274Z,102455.25
2023-04-04T21:59:09.642Z,102459.97
2023-04-04T22:01:38.137Z,102454.19
2023-04-04T22:04:06.288Z,102463.13
2023-04-04T22:06:34.309Z,102328.63
2023-04-04T22:09:03.664Z,102382.22
2023-04-04T22:11:34.542Z,102461.59
2023-04-04T22:14:07.395Z,102392.53
2023-04-04T22:16:39.653Z,102386.44
2023-04-04T22:19:11.520Z,102433.09
2023-04-04T22:21:46.891Z,102430.53
2023-04-04T22:24:15.742Z,102455.69
2023-04-04T22:26:45.853Z,102448.41
2023-04-04T22:29:13.935Z,102440.53
2023-04-04T22:31:43.429Z,102429.19
2023-04-04T22:34:14.145Z,102442.66
2023-04-04T22:36:43.906Z,102438.69
2023-04-04T22:39:16.210Z,102415.94
2023-04-04T22:41:44.537Z,102360.81
2023-04-04T22:44:12.461Z,102377.19
2023-04-04T22:46:41.146Z,102433.38
2023-04-04T22:49:10.563Z,102412.00
2023-04-04T22:51:44.130Z,102437.16
2023-04-04T22:54:14.549Z,102446.06
2023-04-04T22:56:42.951Z,102442.41
2023-04-04T22:59:11.425Z,102440.59
2023-04-04T23:01:39.654Z,102447.41
2023-04-04T23:04:07.790Z,102428.16
2023-04-04T23:06:38.771Z,102386.66
2023-04-04T23:09:08.140Z,102439.06
2023-04-04T23:11:36.134Z,102438.16
2023-04-04T23:14:08.804Z,102336.34
2023-04-04T23:16:37.460Z,102433.91
2023-04-04T23:19:05.571Z,102416.16
2023-04-04T23:21:33.637Z,102437.81
2023-04-04T23:24:03.016Z,102266.66
2023-04-04T23:26:31.309Z,102438.25
2023-04-04T23:28:59.418Z,102437.19
2023-04-04T23:31:27.603Z,102435.53
2023-04-04T23:33:55.946Z,102440.34
2023-04-04T23:36:23.983Z,102432.31
2023-04-04T23:38:51.996Z,102429.44
2023-04-04T23:41:21.544Z,102434.59
2023-04-04T23:43:49.594Z,102438.97
2023-04-04T23:46:17.754Z,102322.59
2023-04-04T23:48:45.719Z,102442.88
2023-04-04T23:51:13.943Z,102443.47
2023-04-04T23:53:41.893Z,102441.50
2023-04-04T23:56:09.873Z,102420.31
2023-04-04T23:58:39.909Z,102426.50
